Time;durP1;ratioP1;P1;durP2;ratioP2;P2;SDS_P1;SDS_P2;PMS_P1;PMS_P2;Temp;Humidity;BMP_temperature;BMP_pressure;BME280_temperature;BME280_humidity;BME280_pressure;Samples;Min_cycle;Max_cycle;Signal;HPM_P1;HPM_P2
2022/12/30 00:02:10;;;;;;;0.08;0.08;;;;;;;7.60;100.00;100944.53;10440637;28;20091;-82
2022/12/30 00:07:11;;;;;;;2.75;0.60;;;;;;;7.37;100.00;100940.19;10451915;28;20057;-83
2022/12/30 00:33:44;;;;;;;0.00;0.00;;;;;;;7.01;100.00;100960.97;10445786;28;20049;-83
2022/12/30 00:38:46;;;;;;;0.43;0.20;;;;;;;6.94;100.00;100964.94;10446573;28;20126;-83
2022/12/30 00:43:47;;;;;;;0.00;0.00;;;;;;;6.96;100.00;100977.00;10438712;28;20053;-83
2022/12/30 00:59:31;;;;;;;0.03;0.03;;;;;;;6.65;100.00;100995.31;10445596;28;20053;-82
2022/12/30 01:04:32;;;;;;;0.00;0.00;;;;;;;6.65;100.00;100998.75;10452553;28;20056;-83
2022/12/30 01:09:35;;;;;;;0.45;0.30;;;;;;;6.84;100.00;100999.53;10453544;28;20056;-83
2022/12/30 01:14:43;;;;;;;0.00;0.00;;;;;;;6.55;100.00;101004.28;10453184;28;20045;-83
2022/12/30 01:19:45;;;;;;;0.00;0.00;;;;;;;6.41;100.00;101018.16;10452597;28;20033;-82
2022/12/30 01:24:46;;;;;;;0.00;0.00;;;;;;;6.08;100.00;101023.47;10447588;28;20409;-82
2022/12/30 01:29:50;;;;;;;0.10;0.05;;;;;;;6.23;100.00;101019.06;10451891;28;20037;-82
2022/12/30 01:34:52;;;;;;;0.00;0.00;;;;;;;6.11;100.00;101023.63;10435778;28;20077;-81
2022/12/30 01:39:54;;;;;;;0.73;0.32;;;;;;;6.12;100.00;101020.28;10452224;28;20041;-88
2022/12/30 01:45:03;;;;;;;0.13;0.05;;;;;;;6.08;100.00;101039.72;10451415;28;20044;-88
2022/12/30 01:50:09;;;;;;;1.55;0.17;;;;;;;6.19;100.00;101029.97;10433156;28;20103;-88
2022/12/30 01:55:17;;;;;;;0.00;0.00;;;;;;;6.14;100.00;101034.03;10450969;28;20698;-87
2022/12/30 02:00:18;;;;;;;0.00;0.00;;;;;;;6.01;100.00;101042.78;10451055;28;20056;-87
2022/12/30 02:05:23;;;;;;;0.00;0.00;;;;;;;6.28;100.00;101081.59;10451368;28;20049;-87
2022/12/30 02:10:25;;;;;;;0.00;0.00;;;;;;;6.49;100.00;101078.25;10449961;28;20049;-88
2022/12/30 02:15:34;;;;;;;3.85;1.27;;;;;;;6.40;100.00;101088.06;10427541;28;20499;-88
2022/12/30 02:20:56;;;;;;;0.00;0.00;;;;;;;6.18;100.00;101087.06;10458804;28;20495;-87
2022/12/30 02:26:34;;;;;;;3.55;0.73;;;;;;;6.44;100.00;101088.28;10458461;28;20091;-88
2022/12/30 02:31:35;;;;;;;0.10;0.10;;;;;;;6.33;100.00;101087.78;10471940;28;20451;-87
2022/12/30 02:36:55;;;;;;;0.00;0.00;;;;;;;6.25;100.00;101083.97;10457430;28;20466;-87
2022/12/30 02:47:52;;;;;;;2.58;0.32;;;;;;;6.11;100.00;101059.44;10474155;28;20114;-85
2022/12/30 02:52:55;;;;;;;0.00;0.00;;;;;;;6.06;100.00;101066.03;10456701;28;20079;-87
2022/12/30 02:57:57;;;;;;;2.55;0.20;;;;;;;5.86;100.00;101061.69;10456968;28;20060;-86
2022/12/30 03:09:11;;;;;;;0.00;0.00;;;;;;;5.75;100.00;101085.00;10471348;28;20041;-86
2022/12/30 03:14:30;;;;;;;0.10;0.10;;;;;;;5.63;100.00;101075.06;10450437;28;20048;-86
2022/12/30 03:19:39;;;;;;;2.55;0.20;;;;;;;5.40;100.00;101062.88;10457187;28;20059;-87
2022/12/30 03:30:03;;;;;;;0.00;0.00;;;;;;;5.38;100.00;101064.50;10455589;28;20068;-87
2022/12/30 03:35:06;;;;;;;0.00;0.00;;;;;;;5.55;100.00;101072.09;10443026;28;20095;-87
2022/12/30 03:40:20;;;;;;;0.00;0.00;;;;;;;5.46;100.00;101067.44;10453402;28;20036;-88
2022/12/30 03:45:22;;;;;;;0.00;0.00;;;;;;;5.30;100.00;101080.22;10438802;28;20143;-86
2022/12/30 03:50:24;;;;;;;0.10;0.10;;;;;;;5.47;100.00;101076.00;10454466;28;20573;-88
2022/12/30 03:55:25;;;;;;;0.00;0.00;;;;;;;5.27;100.00;101078.41;10454765;28;20056;-87
2022/12/30 04:00:32;;;;;;;3.75;0.15;;;;;;;5.42;100.00;101095.31;10453803;28;20404;-88
2022/12/30 04:05:34;;;;;;;0.43;0.30;;;;;;;5.70;100.00;101093.31;10465194;28;20504;-87
2022/12/30 04:10:36;;;;;;;0.40;0.30;;;;;;;5.44;100.00;101103.94;10427495;28;20107;-88
2022/12/30 04:15:37;;;;;;;0.00;0.00;;;;;;;5.46;100.00;101098.09;10448873;28;20072;-88
2022/12/30 04:20:39;;;;;;;0.08;0.08;;;;;;;5.40;100.00;101078.22;10453531;28;20040;-86
2022/12/30 04:25:41;;;;;;;0.00;0.00;;;;;;;5.45;100.00;101092.91;10451968;28;20439;-87
2022/12/30 04:30:42;;;;;;;0.00;0.00;;;;;;;5.43;100.00;101082.63;10434531;28;20045;-87
2022/12/30 04:35:44;;;;;;;0.15;0.15;;;;;;;5.32;100.00;101084.66;10452757;28;20059;-86
2022/12/30 04:40:45;;;;;;;1.63;1.55;;;;;;;5.27;100.00;101075.84;10450906;28;20495;-86
2022/12/30 04:45:47;;;;;;;0.00;0.00;;;;;;;5.13;100.00;101072.63;10452384;28;20044;-87
2022/12/30 04:50:49;;;;;;;0.10;0.10;;;;;;;5.42;100.00;101074.84;10456255;28;20077;-82
2022/12/30 04:55:55;;;;;;;0.00;0.00;;;;;;;5.34;100.00;101083.03;10436020;28;20053;-82
2022/12/30 05:00:57;;;;;;;0.00;0.00;;;;;;;4.89;100.00;101087.53;10449687;28;20044;-82
2022/12/30 05:05:58;;;;;;;0.03;0.03;;;;;;;5.25;100.00;101103.00;10434762;28;20053;-82
2022/12/30 05:11:00;;;;;;;0.00;0.00;;;;;;;5.23;100.00;101104.63;10453123;28;20192;-82
2022/12/30 05:16:02;;;;;;;0.00;0.00;;;;;;;5.38;100.00;101110.50;10444304;28;20079;-83
2022/12/30 05:21:03;;;;;;;0.52;0.52;;;;;;;5.37;100.00;101110.41;10439906;28;20045;-82
2022/12/30 05:26:14;;;;;;;0.00;0.00;;;;;;;5.20;100.00;101099.34;10453001;28;20053;-83
2022/12/30 05:31:17;;;;;;;0.13;0.13;;;;;;;5.34;100.00;101100.91;10451997;28;20045;-82
2022/12/30 05:36:19;;;;;;;0.30;0.13;;;;;;;5.24;100.00;101096.16;10454523;28;20041;-82
2022/12/30 05:41:21;;;;;;;0.00;0.00;;;;;;;5.38;100.00;101097.72;10453552;28;20045;-82
2022/12/30 05:46:26;;;;;;;0.73;0.57;;;;;;;5.23;100.00;101090.16;10444261;28;20103;-81
2022/12/30 05:51:28;;;;;;;0.75;0.22;;;;;;;5.31;100.00;101098.22;10443323;28;20126;-82
2022/12/30 05:56:30;;;;;;;0.00;0.00;;;;;;;5.05;100.00;101090.09;10462461;28;20568;-81
2022/12/30 06:01:31;;;;;;;1.65;0.32;;;;;;;5.12;100.00;101090.41;10459552;28;20033;-82
2022/12/30 06:06:33;;;;;;;0.00;0.00;;;;;;;5.30;100.00;101086.25;10448134;28;20049;-81
2022/12/30 06:11:34;;;;;;;0.00;0.00;;;;;;;5.35;100.00;101083.91;10459257;28;20053;-81
2022/12/30 06:16:36;;;;;;;0.00;0.00;;;;;;;5.27;100.00;101091.19;10447430;28;20522;-82
2022/12/30 06:21:38;;;;;;;0.08;0.08;;;;;;;5.31;100.00;101098.22;10456818;28;20132;-82
2022/12/30 06:26:39;;;;;;;0.05;0.00;;;;;;;5.36;100.00;101094.19;10456628;28;20044;-83
2022/12/30 06:31:41;;;;;;;0.22;0.20;;;;;;;5.28;100.00;101092.06;10448337;28;20447;-82
2022/12/30 06:36:43;;;;;;;0.15;0.15;;;;;;;5.40;100.00;101085.88;10437480;28;20075;-82
2022/12/30 06:41:44;;;;;;;2.10;0.80;;;;;;;5.49;100.00;101088.03;10425228;28;20087;-83
2022/12/30 06:47:13;;;;;;;5.38;0.45;;;;;;;5.51;100.00;101075.31;10435524;28;20095;-82
2022/12/30 06:52:15;;;;;;;0.00;0.00;;;;;;;5.56;100.00;101078.97;10456357;28;20087;-83
2022/12/30 06:57:17;;;;;;;0.47;0.40;;;;;;;5.63;100.00;101081.03;10448431;28;20107;-83
2022/12/30 07:02:18;;;;;;;0.00;0.00;;;;;;;5.68;100.00;101079.59;10447641;28;20029;-82
2022/12/30 07:07:20;;;;;;;0.40;0.20;;;;;;;5.79;100.00;101068.97;10457336;28;20048;-82
2022/12/30 07:12:21;;;;;;;0.80;0.20;;;;;;;5.52;100.00;101061.75;10437467;28;20070;-82
2022/12/30 07:17:23;;;;;;;1.88;0.95;;;;;;;5.70;100.00;101062.63;10431129;28;20087;-82
2022/12/30 07:22:25;;;;;;;0.47;0.13;;;;;;;5.60;100.00;101059.56;10456193;28;20036;-82
2022/12/30 07:27:26;;;;;;;0.10;0.10;;;;;;;5.75;100.00;101049.19;10431039;28;20053;-89
2022/12/30 07:32:28;;;;;;;0.03;0.03;;;;;;;5.80;100.00;101037.50;10455158;28;20099;-88
2022/12/30 07:37:30;;;;;;;0.00;0.00;;;;;;;5.72;100.00;101014.16;10455752;28;20111;-89
2022/12/30 07:42:32;;;;;;;3.10;0.35;;;;;;;5.79;100.00;101008.53;10438046;28;20037;-88
2022/12/30 07:47:34;;;;;;;0.00;0.00;;;;;;;6.00;100.00;100997.56;10455787;28;20052;-88
2022/12/30 07:52:37;;;;;;;0.00;0.00;;;;;;;5.98;100.00;100992.34;10455353;28;20041;-89
2022/12/30 07:57:38;;;;;;;0.00;0.00;;;;;;;5.99;100.00;100983.03;10457185;28;20045;-89
2022/12/30 08:02:40;;;;;;;1.13;0.22;;;;;;;6.08;100.00;100988.56;10436088;28;20037;-88
2022/12/30 08:07:42;;;;;;;0.47;0.38;;;;;;;5.71;100.00;100980.03;10438182;28;20049;-88
2022/12/30 08:12:45;;;;;;;0.00;0.00;;;;;;;5.85;100.00;100978.13;10446206;28;20125;-88
2022/12/30 08:17:46;;;;;;;0.00;0.00;;;;;;;5.93;100.00;100958.00;10442253;28;20064;-88
2022/12/30 08:22:48;;;;;;;0.10;0.10;;;;;;;5.80;100.00;100937.78;10443573;28;20041;-89
2022/12/30 08:27:49;;;;;;;0.00;0.00;;;;;;;5.89;100.00;100912.66;10434723;28;20056;-88
2022/12/30 08:32:51;;;;;;;0.00;0.00;;;;;;;5.92;100.00;100912.78;10439701;28;20037;-88
2022/12/30 08:37:53;;;;;;;0.00;0.00;;;;;;;6.03;100.00;100909.06;10452363;28;20110;-89
2022/12/30 08:42:54;;;;;;;0.20;0.10;;;;;;;6.10;100.00;100906.78;10444122;28;20375;-87
2022/12/30 08:47:56;;;;;;;0.00;0.00;;;;;;;6.40;100.00;100893.56;10448796;28;20044;-87
2022/12/30 08:52:57;;;;;;;0.00;0.00;;;;;;;6.28;100.00;100873.44;10453369;28;20041;-87
2022/12/30 08:57:59;;;;;;;0.63;0.20;;;;;;;6.48;100.00;100858.94;10437070;28;20049;-87
2022/12/30 09:03:00;;;;;;;0.35;0.30;;;;;;;6.40;100.00;100842.38;10431058;28;20095;-79
2022/12/30 09:08:02;;;;;;;0.00;0.00;;;;;;;6.47;100.00;100822.25;10453740;28;20518;-80
2022/12/30 09:13:04;;;;;;;0.60;0.05;;;;;;;6.67;100.00;100825.59;10452789;28;20098;-80
2022/12/30 09:18:05;;;;;;;5.50;0.10;;;;;;;6.55;100.00;100816.56;10439728;28;20107;-80
2022/12/30 09:23:07;;;;;;;0.15;0.08;;;;;;;6.81;100.00;100799.69;10436285;28;20068;-79
2022/12/30 09:28:09;;;;;;;0.28;0.10;;;;;;;6.76;100.00;100780.69;10435795;28;20502;-79
2022/12/30 09:33:10;;;;;;;0.00;0.00;;;;;;;6.95;100.00;100778.03;10452088;28;20179;-80
2022/12/30 09:38:12;;;;;;;0.00;0.00;;;;;;;7.10;100.00;100756.38;10431650;28;20068;-80
2022/12/30 09:43:32;;;;;;;0.25;0.10;;;;;;;7.03;100.00;100744.16;10424368;28;20430;-80
2022/12/30 09:48:49;;;;;;;0.57;0.50;;;;;;;7.32;100.00;100726.44;10451340;28;20456;-80
2022/12/30 09:53:59;;;;;;;0.00;0.00;;;;;;;7.66;100.00;100722.50;10452306;28;20707;-80
2022/12/30 09:59:15;;;;;;;4.13;1.60;;;;;;;7.77;100.00;100716.91;10440362;28;20048;-81
2022/12/30 10:04:19;;;;;;;0.00;0.00;;;;;;;7.75;100.00;100720.25;10435510;28;20049;-81
2022/12/30 10:09:27;;;;;;;0.00;0.00;;;;;;;8.00;100.00;100703.13;10435537;28;20052;-81
2022/12/30 10:14:41;;;;;;;0.00;0.00;;;;;;;8.17;100.00;100707.09;10439023;28;20049;-81
2022/12/30 10:19:50;;;;;;;0.00;0.00;;;;;;;8.03;100.00;100703.22;10451350;28;20088;-80
2022/12/30 10:24:59;;;;;;;0.20;0.20;;;;;;;8.20;100.00;100679.00;10434401;28;20519;-80
2022/12/30 10:30:01;;;;;;;0.00;0.00;;;;;;;8.55;100.00;100668.13;10435176;28;20114;-80
2022/12/30 10:35:14;;;;;;;0.10;0.10;;;;;;;8.38;100.00;100654.69;10451970;28;20063;-80
2022/12/30 10:40:16;;;;;;;0.00;0.00;;;;;;;8.75;100.00;100643.00;10456232;28;20507;-80
2022/12/30 10:46:25;;;;;;;0.00;0.00;;;;;;;8.81;100.00;100609.81;10444718;28;20053;-80
2022/12/30 10:51:27;;;;;;;0.28;0.20;;;;;;;8.78;100.00;100598.56;10450530;28;20045;-80
2022/12/30 10:56:33;;;;;;;0.00;0.00;;;;;;;8.70;100.00;100593.19;10458593;28;20088;-80
2022/12/30 11:01:36;;;;;;;1.35;0.40;;;;;;;9.00;100.00;100579.47;10457923;28;20041;-80
2022/12/30 11:06:38;;;;;;;0.65;0.22;;;;;;;8.91;100.00;100564.69;10445595;28;20118;-81
2022/12/30 11:17:28;;;;;;;0.73;0.57;;;;;;;9.19;100.00;100534.56;10451792;28;20055;-80
2022/12/30 11:22:30;;;;;;;0.00;0.00;;;;;;;8.98;100.00;100515.19;10464481;28;20041;-82
2022/12/30 11:27:40;;;;;;;0.40;0.40;;;;;;;8.99;100.00;100506.66;10462776;28;20052;-81
2022/12/30 11:32:46;;;;;;;0.50;0.47;;;;;;;9.09;100.00;100497.50;10421980;28;20463;-81
2022/12/30 11:37:47;;;;;;;3.92;0.75;;;;;;;9.20;100.00;100470.34;10440492;28;20476;-81
2022/12/30 11:43:08;;;;;;;4.85;1.95;;;;;;;9.23;100.00;100448.13;10456469;28;20178;-81
2022/12/30 11:48:27;;;;;;;4.45;2.17;;;;;;;9.31;100.00;100421.75;10450218;28;20075;-81
2022/12/30 11:53:33;;;;;;;5.25;2.40;;;;;;;9.33;100.00;100399.53;10455484;28;20053;-80
2022/12/30 11:58:37;;;;;;;0.90;0.82;;;;;;;9.31;100.00;100361.78;10455523;28;20053;-81
2022/12/30 12:03:52;;;;;;;3.30;2.50;;;;;;;9.42;100.00;100352.59;10428745;28;20079;-81
2022/12/30 12:09:01;;;;;;;0.28;0.28;;;;;;;9.33;100.00;100318.97;10423527;28;20554;-82
2022/12/30 12:14:30;;;;;;;1.75;1.05;;;;;;;9.23;100.00;100319.59;10438789;28;20051;-82
2022/12/30 12:19:35;;;;;;;0.95;0.68;;;;;;;9.44;100.00;100299.50;10437901;28;20122;-81
2022/12/30 12:24:42;;;;;;;0.10;0.10;;;;;;;9.24;100.00;100290.50;10454586;28;20114;-81
2022/12/30 12:29:45;;;;;;;0.68;0.43;;;;;;;9.50;100.00;100273.03;10454690;28;20542;-82
2022/12/30 12:35:03;;;;;;;0.55;0.20;;;;;;;9.26;100.00;100269.13;10437810;28;20052;-81
2022/12/30 12:40:31;;;;;;;0.43;0.43;;;;;;;9.47;100.00;100250.72;10454210;28;20517;-80
2022/12/30 12:45:47;;;;;;;0.10;0.10;;;;;;;9.53;100.00;100227.69;10453549;28;20057;-81
2022/12/30 12:50:57;;;;;;;0.00;0.00;;;;;;;9.43;100.00;100212.91;10440323;28;20090;-81
2022/12/30 12:56:19;;;;;;;0.00;0.00;;;;;;;9.66;100.00;100179.03;10452483;28;20090;-80
2022/12/30 13:01:34;;;;;;;0.68;0.40;;;;;;;9.53;100.00;100168.53;10433451;28;20454;-80
2022/12/30 13:06:36;;;;;;;0.00;0.00;;;;;;;9.53;100.00;100153.13;10424352;28;20053;-80
2022/12/30 13:11:53;;;;;;;0.03;0.03;;;;;;;9.59;100.00;100134.38;10438967;28;20045;-82
2022/12/30 13:16:59;;;;;;;0.00;0.00;;;;;;;9.69;100.00;100119.94;10440892;28;20049;-82
2022/12/30 13:22:07;;;;;;;1.67;0.40;;;;;;;9.45;100.00;100103.25;10452414;28;20079;-82
2022/12/30 13:27:19;;;;;;;0.47;0.30;;;;;;;9.57;100.00;100096.63;10452974;28;20052;-81
2022/12/30 13:32:48;;;;;;;0.88;0.32;;;;;;;9.15;100.00;100094.16;10443374;28;20044;-81
2022/12/30 13:38:02;;;;;;;0.00;0.00;;;;;;;9.23;100.00;100078.88;10442964;28;20049;-82
2022/12/30 13:43:26;;;;;;;0.45;0.15;;;;;;;8.95;100.00;100062.94;10431458;28;20076;-80
2022/12/30 13:48:33;;;;;;;0.25;0.17;;;;;;;8.94;100.00;100073.19;10446091;28;20044;-82
2022/12/30 13:53:53;;;;;;;0.40;0.17;;;;;;;9.07;100.00;100049.44;10433467;28;20037;-82
2022/12/30 13:58:55;;;;;;;1.80;1.30;;;;;;;8.85;100.00;100020.81;10452518;28;20099;-82
2022/12/30 14:04:08;;;;;;;0.60;0.55;;;;;;;8.86;100.00;100011.41;10453967;28;20132;-82
2022/12/30 14:10:02;;;;;;;7.60;1.48;;;;;;;8.70;100.00;99994.81;10431572;28;20052;-82
2022/12/30 14:15:49;;;;;;;1.77;0.60;;;;;;;8.74;100.00;99991.50;10433590;28;20067;-82
2022/12/30 14:21:00;;;;;;;3.83;1.10;;;;;;;8.86;100.00;99978.88;10417543;28;20048;-82
2022/12/30 14:26:17;;;;;;;0.55;0.52;;;;;;;8.40;100.00;99975.41;10443469;28;20094;-83
2022/12/30 14:31:28;;;;;;;0.30;0.30;;;;;;;8.54;100.00;99998.81;10446448;28;20041;-83
2022/12/30 14:36:32;;;;;;;0.25;0.20;;;;;;;8.59;100.00;100012.59;10460359;28;20095;-84
2022/12/30 14:41:36;;;;;;;2.40;0.30;;;;;;;8.52;100.00;100011.63;10438076;28;20033;-84
2022/12/30 14:46:41;;;;;;;0.73;0.73;;;;;;;8.54;100.00;100025.34;10417688;28;20069;-82
2022/12/30 14:51:52;;;;;;;0.38;0.32;;;;;;;8.50;100.00;99997.00;10459115;28;20041;-82
2022/12/30 14:57:02;;;;;;;2.33;1.48;;;;;;;8.40;100.00;99995.94;10459695;28;20064;-83
2022/12/30 15:02:19;;;;;;;0.57;0.52;;;;;;;8.35;100.00;100049.72;10437008;28;20036;-83
2022/12/30 15:07:27;;;;;;;0.80;0.50;;;;;;;8.50;100.00;100044.09;10455446;28;20110;-82
2022/12/30 15:12:29;;;;;;;2.35;0.30;;;;;;;8.36;100.00;100104.50;10444710;28;20487;-82
2022/12/30 15:17:35;;;;;;;0.38;0.38;;;;;;;8.44;100.00;100100.41;10458831;28;20079;-83
2022/12/30 15:22:38;;;;;;;1.42;0.10;;;;;;;8.57;100.00;100107.56;10448628;28;20095;-83
2022/12/30 15:27:39;;;;;;;0.22;0.22;;;;;;;8.46;100.00;100118.41;10451171;28;20447;-84
2022/12/30 15:32:42;;;;;;;0.00;0.00;;;;;;;8.28;100.00;100236.91;10459240;28;20091;-84
2022/12/30 15:37:47;;;;;;;0.10;0.10;;;;;;;8.38;100.00;100218.31;10457284;28;20052;-84
2022/12/30 15:42:55;;;;;;;0.15;0.15;;;;;;;8.27;100.00;100212.94;10450774;28;20056;-84
2022/12/30 15:48:00;;;;;;;0.25;0.20;;;;;;;8.31;100.00;100214.75;10453844;28;20045;-84
2022/12/30 15:53:15;;;;;;;0.38;0.15;;;;;;;8.40;100.00;100208.97;10448799;28;20041;-84
2022/12/30 15:58:27;;;;;;;0.30;0.20;;;;;;;8.62;100.00;100187.28;10436271;28;20060;-83
2022/12/30 16:03:28;;;;;;;0.32;0.17;;;;;;;8.66;100.00;100235.28;10419756;28;20054;-84
2022/12/30 16:08:34;;;;;;;0.00;0.00;;;;;;;8.70;100.00;100200.28;10451614;28;20052;-85
2022/12/30 16:13:44;;;;;;;0.88;0.52;;;;;;;8.74;100.00;100166.13;10441347;28;20041;-85
2022/12/30 16:19:12;;;;;;;1.25;0.50;;;;;;;8.81;100.00;100168.00;10457078;28;20123;-85
2022/12/30 16:24:35;;;;;;;0.03;0.03;;;;;;;8.87;100.00;100196.38;10441074;28;20121;-86
2022/12/30 16:29:37;;;;;;;0.40;0.20;;;;;;;9.03;100.00;100189.84;10443342;28;20053;-86
2022/12/30 16:34:38;;;;;;;0.00;0.00;;;;;;;9.11;100.00;100184.88;10454922;28;20488;-85
2022/12/30 16:39:41;;;;;;;0.90;0.65;;;;;;;8.83;100.00;100192.00;10455564;28;20518;-84
2022/12/30 16:44:48;;;;;;;0.63;0.30;;;;;;;9.15;100.00;100199.50;10455104;28;20049;-84
2022/12/30 16:49:56;;;;;;;0.77;0.57;;;;;;;9.43;100.00;100215.47;10454682;28;20064;-85
2022/12/30 16:55:00;;;;;;;0.20;0.20;;;;;;;9.47;100.00;100212.16;10451390;28;20132;-84
2022/12/30 17:00:04;;;;;;;0.17;0.15;;;;;;;9.43;100.00;100188.91;10432933;28;20091;-84
2022/12/30 17:05:31;;;;;;;0.35;0.10;;;;;;;9.52;100.00;100200.25;10447857;28;20131;-85
2022/12/30 17:10:53;;;;;;;0.20;0.20;;;;;;;9.65;100.00;100185.91;10454837;28;20095;-89
2022/12/30 17:15:56;;;;;;;0.00;0.00;;;;;;;9.59;100.00;100210.63;10447320;28;20059;-91
2022/12/30 17:21:00;;;;;;;0.10;0.00;;;;;;;9.80;100.00;100205.88;10447170;28;20041;-90
2022/12/30 17:26:03;;;;;;;0.00;0.00;;;;;;;10.09;100.00;100190.06;10444489;28;20040;-90
2022/12/30 17:31:07;;;;;;;0.35;0.35;;;;;;;10.29;100.00;100199.84;10452157;28;20045;-92
2022/12/30 17:36:15;;;;;;;0.10;0.10;;;;;;;10.67;100.00;100204.72;10438261;28;20044;-90
2022/12/30 17:41:18;;;;;;;0.10;0.10;;;;;;;10.34;100.00;100218.78;10452404;28;20056;-90
2022/12/30 17:46:29;;;;;;;0.25;0.13;;;;;;;10.47;100.00;100228.47;10454883;28;20484;-89
2022/12/30 17:51:32;;;;;;;0.32;0.32;;;;;;;10.59;100.00;100224.34;10462356;28;20120;-90
2022/12/30 17:56:33;;;;;;;0.35;0.35;;;;;;;10.73;100.00;100243.47;10452807;28;20047;-90
2022/12/30 18:01:35;;;;;;;0.88;0.38;;;;;;;10.99;100.00;100230.06;10430203;28;20400;-90
2022/12/30 18:06:38;;;;;;;0.43;0.25;;;;;;;10.99;100.00;100244.66;10464078;28;20090;-89
2022/12/30 18:11:41;;;;;;;0.00;0.00;;;;;;;10.93;100.00;100250.59;10445164;28;20071;-88
2022/12/30 18:16:43;;;;;;;0.28;0.20;;;;;;;11.18;100.00;100251.78;10448160;28;20103;-88
2022/12/30 18:21:45;;;;;;;0.10;0.10;;;;;;;11.32;100.00;100264.88;10444655;28;20045;-88
2022/12/30 18:26:47;;;;;;;0.20;0.20;;;;;;;11.49;100.00;100251.31;10447978;28;20045;-89
2022/12/30 18:31:48;;;;;;;0.05;0.05;;;;;;;11.73;100.00;100250.72;10436502;28;20098;-90
2022/12/30 18:36:56;;;;;;;0.40;0.35;;;;;;;11.75;100.00;100252.47;10446148;28;20143;-89
2022/12/30 18:41:58;;;;;;;0.43;0.10;;;;;;;11.88;100.00;100275.81;10452478;28;20060;-89
2022/12/30 18:47:00;;;;;;;0.10;0.10;;;;;;;12.18;100.00;100285.63;10430216;28;20053;-89
2022/12/30 18:52:02;;;;;;;0.85;0.75;;;;;;;12.24;100.00;100273.59;10459191;28;20091;-88
2022/12/30 18:57:03;;;;;;;0.15;0.10;;;;;;;12.45;100.00;100275.53;10459256;28;20044;-88
2022/12/30 19:02:06;;;;;;;0.00;0.00;;;;;;;12.45;100.00;100271.19;10451415;28;20041;-90
2022/12/30 19:07:07;;;;;;;0.10;0.10;;;;;;;12.62;100.00;100280.81;10441104;28;20042;-89
2022/12/30 19:12:09;;;;;;;0.03;0.03;;;;;;;12.53;100.00;100260.94;10441116;28;20045;-89
2022/12/30 19:17:10;;;;;;;0.20;0.13;;;;;;;12.76;100.00;100268.84;10423385;28;20086;-89
2022/12/30 19:22:13;;;;;;;0.22;0.22;;;;;;;12.77;100.00;100269.72;10412809;28;20438;-88
2022/12/30 19:27:15;;;;;;;0.20;0.20;;;;;;;12.72;100.00;100286.91;10456503;28;20518;-88
2022/12/30 19:32:16;;;;;;;0.40;0.30;;;;;;;12.84;100.00;100292.19;10456550;28;20095;-87
2022/12/30 19:37:18;;;;;;;1.52;0.75;;;;;;;12.85;100.00;100306.81;10452192;28;20056;-87
2022/12/30 19:42:20;;;;;;;0.57;0.20;;;;;;;13.00;100.00;100288.81;10449182;28;20087;-88
2022/12/30 19:47:21;;;;;;;0.22;0.10;;;;;;;12.97;100.00;100283.66;10456572;28;20056;-89
2022/12/30 19:52:23;;;;;;;0.40;0.30;;;;;;;13.00;100.00;100306.06;10455943;28;20048;-89
2022/12/30 19:57:25;;;;;;;0.38;0.10;;;;;;;13.23;100.00;100305.34;10455726;28;20060;-88
2022/12/30 20:02:27;;;;;;;0.08;0.08;;;;;;;13.20;100.00;100295.84;10440499;28;20042;-89
2022/12/30 20:07:29;;;;;;;0.25;0.25;;;;;;;13.22;100.00;100298.44;10429526;28;20080;-89
2022/12/30 20:12:31;;;;;;;1.25;0.98;;;;;;;13.29;100.00;100310.53;10428435;28;20079;-88
2022/12/30 20:17:34;;;;;;;0.00;0.00;;;;;;;13.27;100.00;100307.94;10438785;28;20141;-88
2022/12/30 20:22:36;;;;;;;0.20;0.20;;;;;;;13.32;100.00;100306.25;10418706;28;20488;-88
2022/12/30 20:27:39;;;;;;;0.10;0.10;;;;;;;13.22;100.00;100304.44;10441810;28;20389;-87
2022/12/30 20:32:41;;;;;;;0.63;0.43;;;;;;;13.22;100.00;100309.63;10452964;28;20091;-88
2022/12/30 20:37:42;;;;;;;0.05;0.05;;;;;;;13.15;100.00;100315.63;10447414;28;20099;-89
2022/12/30 20:42:44;;;;;;;0.00;0.00;;;;;;;13.22;100.00;100317.38;10447846;28;20128;-88
2022/12/30 20:47:46;;;;;;;0.43;0.35;;;;;;;13.27;100.00;100320.88;10453176;28;20045;-87
2022/12/30 20:52:47;;;;;;;0.22;0.22;;;;;;;13.25;100.00;100351.03;10430697;28;20052;-87
2022/12/30 20:57:49;;;;;;;0.30;0.10;;;;;;;13.28;100.00;100366.59;10453707;28;20068;-88
2022/12/30 21:02:52;;;;;;;0.15;0.13;;;;;;;13.24;100.00;100372.59;10451985;28;20128;-87
2022/12/30 21:07:54;;;;;;;3.60;0.75;;;;;;;13.49;100.00;100362.44;10450058;28;20134;-88
2022/12/30 21:12:56;;;;;;;1.27;0.10;;;;;;;13.57;100.00;100319.34;10439808;28;20049;-88
2022/12/30 21:17:58;;;;;;;0.00;0.00;;;;;;;13.63;100.00;100316.75;10449071;28;20111;-88
2022/12/30 21:22:59;;;;;;;0.40;0.30;;;;;;;13.69;100.00;100294.34;10451211;28;20573;-89
2022/12/30 21:28:01;;;;;;;0.00;0.00;;;;;;;13.85;100.00;100292.69;10452817;28;20073;-89
2022/12/30 21:33:02;;;;;;;0.15;0.08;;;;;;;13.95;100.00;100302.19;10439261;28;20416;-90
2022/12/30 22:05:16;;;;;;;0.52;0.38;;;;;;;14.02;100.00;100314.28;10440227;28;20073;-87
2022/12/30 22:10:21;;;;;;;0.00;0.00;;;;;;;13.91;100.00;100310.81;10431172;28;20053;-88
2022/12/30 22:15:24;;;;;;;0.00;0.00;;;;;;;14.16;100.00;100311.72;10448164;28;20048;-88
2022/12/30 22:20:25;;;;;;;1.60;0.40;;;;;;;14.22;100.00;100311.75;10426986;28;20088;-87
2022/12/30 22:25:35;;;;;;;0.57;0.40;;;;;;;14.20;100.00;100318.63;10439174;28;20079;-88
2022/12/30 22:30:38;;;;;;;0.00;0.00;;;;;;;14.19;100.00;100327.25;10431659;28;20079;-86
2022/12/30 22:35:42;;;;;;;0.30;0.15;;;;;;;13.95;100.00;100333.25;10439492;28;20053;-87
2022/12/30 22:40:44;;;;;;;0.63;0.10;;;;;;;14.25;100.00;100336.78;10453236;28;20087;-86
2022/12/30 22:45:46;;;;;;;0.10;0.03;;;;;;;14.06;100.00;100334.16;10448946;28;20106;-87
2022/12/30 22:50:47;;;;;;;0.25;0.10;;;;;;;14.07;100.00;100332.44;10456461;28;20053;-87
2022/12/30 22:55:49;;;;;;;0.03;0.03;;;;;;;13.85;100.00;100347.06;10456226;28;20057;-88
2022/12/30 23:00:51;;;;;;;0.08;0.00;;;;;;;13.63;100.00;100378.88;10447769;28;20052;-88
2022/12/30 23:05:52;;;;;;;0.28;0.25;;;;;;;13.80;100.00;100404.00;10452829;28;20051;-89
2022/12/30 23:10:54;;;;;;;0.47;0.40;;;;;;;13.79;100.00;100438.50;10460520;28;20048;-90
2022/12/30 23:16:08;;;;;;;0.00;0.00;;;;;;;13.74;100.00;100479.03;10430897;28;20041;-91
2022/12/30 23:21:15;;;;;;;0.00;0.00;;;;;;;13.88;100.00;100474.81;10450011;28;20061;-89
2022/12/30 23:26:17;;;;;;;0.00;0.00;;;;;;;13.71;100.00;100459.16;10444364;28;20114;-90
2022/12/30 23:31:19;;;;;;;0.75;0.30;;;;;;;14.09;100.00;100455.91;10446425;28;20516;-89
2022/12/30 23:36:21;;;;;;;0.10;0.10;;;;;;;13.72;100.00;100458.31;10459201;28;20049;-91
2022/12/30 23:41:24;;;;;;;0.10;0.10;;;;;;;13.91;100.00;100461.00;10442338;28;20038;-90
2022/12/30 23:46:26;;;;;;;0.10;0.10;;;;;;;13.77;100.00;100468.69;10418009;28;20053;-91
2022/12/30 23:51:28;;;;;;;0.15;0.15;;;;;;;13.79;100.00;100475.59;10436788;28;20571;-90
2022/12/30 23:56:30;;;;;;;0.08;0.08;;;;;;;13.96;100.00;100474.84;10458006;28;20056;-89
